sensor_id;sensor_type;location;lat;lon;timestamp;P1;durP1;ratioP1;P2;durP2;ratioP2
68803;SDS011;55787;52.678;13.314;2023-07-30T00:01:17;11.68;;;4.32;;
68803;SDS011;55787;52.678;13.314;2023-07-30T00:03:43;11.02;;;4.32;;
68803;SDS011;55787;52.678;13.314;2023-07-30T00:06:10;10.95;;;3.92;;
68803;SDS011;55787;52.678;13.314;2023-07-30T00:08:37;11.40;;;4.10;;
68803;SDS011;55787;52.678;13.314;2023-07-30T00:11:03;11.40;;;3.70;;
68803;SDS011;55787;52.678;13.314;2023-07-30T00:13:30;11.45;;;4.32;;
68803;SDS011;55787;52.678;13.314;2023-07-30T00:15:57;13.02;;;4.03;;
68803;SDS011;55787;52.678;13.314;2023-07-30T00:18:24;9.77;;;3.67;;
68803;SDS011;55787;52.678;13.314;2023-07-30T00:20:50;10.88;;;3.70;;
68803;SDS011;55787;52.678;13.314;2023-07-30T00:23:17;10.30;;;4.10;;
68803;SDS011;55787;52.678;13.314;2023-07-30T00:25:44;9.88;;;3.70;;
68803;SDS011;55787;52.678;13.314;2023-07-30T00:28:10;11.07;;;3.90;;
68803;SDS011;55787;52.678;13.314;2023-07-30T00:30:37;13.05;;;3.92;;
68803;SDS011;55787;52.678;13.314;2023-07-30T00:33:04;9.63;;;3.50;;
68803;SDS011;55787;52.678;13.314;2023-07-30T00:35:31;8.90;;;3.40;;
68803;SDS011;55787;52.678;13.314;2023-07-30T00:37:57;9.20;;;3.20;;
68803;SDS011;55787;52.678;13.314;2023-07-30T00:40:24;10.52;;;3.60;;
68803;SDS011;55787;52.678;13.314;2023-07-30T00:42:51;7.95;;;3.28;;
68803;SDS011;55787;52.678;13.314;2023-07-30T00:45:18;12.18;;;3.75;;
68803;SDS011;55787;52.678;13.314;2023-07-30T00:47:44;9.70;;;3.57;;
68803;SDS011;55787;52.678;13.314;2023-07-30T00:50:12;9.48;;;3.58;;
68803;SDS011;55787;52.678;13.314;2023-07-30T00:52:41;13.18;;;3.90;;
68803;SDS011;55787;52.678;13.314;2023-07-30T00:55:08;10.02;;;3.78;;
68803;SDS011;55787;52.678;13.314;2023-07-30T00:57:36;10.23;;;3.47;;
68803;SDS011;55787;52.678;13.314;2023-07-30T01:00:03;10.60;;;4.07;;
68803;SDS011;55787;52.678;13.314;2023-07-30T01:02:32;10.98;;;3.78;;
68803;SDS011;55787;52.678;13.314;2023-07-30T01:04:59;11.20;;;4.32;;
68803;SDS011;55787;52.678;13.314;2023-07-30T01:07:27;11.40;;;4.13;;
68803;SDS011;55787;52.678;13.314;2023-07-30T01:09:54;12.23;;;4.43;;
68803;SDS011;55787;52.678;13.314;2023-07-30T01:12:22;11.30;;;4.50;;
68803;SDS011;55787;52.678;13.314;2023-07-30T01:14:49;13.60;;;4.38;;
68803;SDS011;55787;52.678;13.314;2023-07-30T01:17:17;14.52;;;4.22;;
68803;SDS011;55787;52.678;13.314;2023-07-30T01:19:44;12.15;;;3.90;;
68803;SDS011;55787;52.678;13.314;2023-07-30T01:22:11;10.88;;;4.10;;
68803;SDS011;55787;52.678;13.314;2023-07-30T01:24:38;10.50;;;3.70;;
68803;SDS011;55787;52.678;13.314;2023-07-30T01:27:05;12.35;;;4.60;;
68803;SDS011;55787;52.678;13.314;2023-07-30T01:32:24;11.82;;;4.30;;
68803;SDS011;55787;52.678;13.314;2023-07-30T01:34:52;11.40;;;4.35;;
68803;SDS011;55787;52.678;13.314;2023-07-30T01:37:21;10.73;;;4.00;;
68803;SDS011;55787;52.678;13.314;2023-07-30T01:39:48;10.25;;;3.85;;
68803;SDS011;55787;52.678;13.314;2023-07-30T01:42:16;12.15;;;4.55;;
68803;SDS011;55787;52.678;13.314;2023-07-30T01:44:43;10.57;;;4.03;;
68803;SDS011;55787;52.678;13.314;2023-07-30T01:47:09;12.32;;;4.20;;
68803;SDS011;55787;52.678;13.314;2023-07-30T01:49:36;9.87;;;3.87;;
68803;SDS011;55787;52.678;13.314;2023-07-30T01:52:02;11.50;;;4.40;;
68803;SDS011;55787;52.678;13.314;2023-07-30T01:54:29;10.45;;;4.03;;
68803;SDS011;55787;52.678;13.314;2023-07-30T01:56:56;12.88;;;4.32;;
68803;SDS011;55787;52.678;13.314;2023-07-30T01:59:23;12.98;;;3.92;;
68803;SDS011;55787;52.678;13.314;2023-07-30T02:01:49;11.13;;;4.13;;
68803;SDS011;55787;52.678;13.314;2023-07-30T02:04:16;14.25;;;4.45;;
68803;SDS011;55787;52.678;13.314;2023-07-30T02:06:44;13.80;;;3.72;;
68803;SDS011;55787;52.678;13.314;2023-07-30T02:09:11;9.73;;;3.72;;
68803;SDS011;55787;52.678;13.314;2023-07-30T02:11:37;10.43;;;4.28;;
68803;SDS011;55787;52.678;13.314;2023-07-30T02:14:04;11.60;;;3.97;;
68803;SDS011;55787;52.678;13.314;2023-07-30T02:16:31;14.13;;;4.15;;
68803;SDS011;55787;52.678;13.314;2023-07-30T02:18:58;10.55;;;3.97;;
68803;SDS011;55787;52.678;13.314;2023-07-30T02:21:25;11.85;;;4.18;;
68803;SDS011;55787;52.678;13.314;2023-07-30T02:23:53;11.85;;;3.72;;
68803;SDS011;55787;52.678;13.314;2023-07-30T02:26:20;10.33;;;4.07;;
68803;SDS011;55787;52.678;13.314;2023-07-30T02:28:47;9.38;;;3.70;;
68803;SDS011;55787;52.678;13.314;2023-07-30T02:31:14;10.95;;;3.90;;
68803;SDS011;55787;52.678;13.314;2023-07-30T02:33:40;11.23;;;3.75;;
68803;SDS011;55787;52.678;13.314;2023-07-30T02:36:07;12.32;;;4.22;;
68803;SDS011;55787;52.678;13.314;2023-07-30T02:38:34;11.03;;;3.93;;
68803;SDS011;55787;52.678;13.314;2023-07-30T02:41:00;12.13;;;4.07;;
68803;SDS011;55787;52.678;13.314;2023-07-30T02:43:28;12.02;;;4.45;;
68803;SDS011;55787;52.678;13.314;2023-07-30T02:45:55;11.68;;;3.95;;
68803;SDS011;55787;52.678;13.314;2023-07-30T02:48:22;10.15;;;3.58;;
68803;SDS011;55787;52.678;13.314;2023-07-30T02:50:49;10.97;;;3.93;;
68803;SDS011;55787;52.678;13.314;2023-07-30T02:53:15;11.02;;;4.13;;
68803;SDS011;55787;52.678;13.314;2023-07-30T02:55:42;11.20;;;4.55;;
68803;SDS011;55787;52.678;13.314;2023-07-30T02:58:08;12.90;;;4.32;;
68803;SDS011;55787;52.678;13.314;2023-07-30T03:00:35;11.13;;;4.22;;
68803;SDS011;55787;52.678;13.314;2023-07-30T03:03:04;11.87;;;4.17;;
68803;SDS011;55787;52.678;13.314;2023-07-30T03:05:31;10.32;;;4.15;;
68803;SDS011;55787;52.678;13.314;2023-07-30T03:07:58;8.82;;;3.72;;
68803;SDS011;55787;52.678;13.314;2023-07-30T03:10:24;11.98;;;3.78;;
68803;SDS011;55787;52.678;13.314;2023-07-30T03:12:51;9.80;;;3.85;;
68803;SDS011;55787;52.678;13.314;2023-07-30T03:15:18;9.07;;;3.70;;
68803;SDS011;55787;52.678;13.314;2023-07-30T03:17:45;12.15;;;3.28;;
68803;SDS011;55787;52.678;13.314;2023-07-30T03:20:12;9.70;;;3.70;;
68803;SDS011;55787;52.678;13.314;2023-07-30T03:22:38;8.98;;;3.80;;
68803;SDS011;55787;52.678;13.314;2023-07-30T03:25:05;9.00;;;3.40;;
68803;SDS011;55787;52.678;13.314;2023-07-30T03:27:32;10.67;;;3.80;;
68803;SDS011;55787;52.678;13.314;2023-07-30T03:29:59;10.13;;;3.70;;
68803;SDS011;55787;52.678;13.314;2023-07-30T03:32:26;9.05;;;3.75;;
68803;SDS011;55787;52.678;13.314;2023-07-30T03:34:52;10.80;;;3.53;;
68803;SDS011;55787;52.678;13.314;2023-07-30T03:37:19;11.10;;;4.00;;
68803;SDS011;55787;52.678;13.314;2023-07-30T03:39:46;8.93;;;3.50;;
68803;SDS011;55787;52.678;13.314;2023-07-30T03:42:13;9.65;;;3.85;;
68803;SDS011;55787;52.678;13.314;2023-07-30T03:44:39;12.32;;;4.35;;
68803;SDS011;55787;52.678;13.314;2023-07-30T03:47:06;9.88;;;4.03;;
68803;SDS011;55787;52.678;13.314;2023-07-30T03:49:33;13.40;;;4.80;;
68803;SDS011;55787;52.678;13.314;2023-07-30T03:51:59;10.77;;;4.00;;
68803;SDS011;55787;52.678;13.314;2023-07-30T03:54:26;10.60;;;4.40;;
68803;SDS011;55787;52.678;13.314;2023-07-30T03:56:53;13.85;;;4.75;;
68803;SDS011;55787;52.678;13.314;2023-07-30T03:59:20;9.77;;;4.20;;
68803;SDS011;55787;52.678;13.314;2023-07-30T04:01:47;12.48;;;4.95;;
68803;SDS011;55787;52.678;13.314;2023-07-30T04:04:14;10.27;;;4.53;;
68803;SDS011;55787;52.678;13.314;2023-07-30T04:06:40;12.52;;;4.25;;
68803;SDS011;55787;52.678;13.314;2023-07-30T04:09:07;10.57;;;4.53;;
68803;SDS011;55787;52.678;13.314;2023-07-30T04:11:34;11.15;;;4.38;;
68803;SDS011;55787;52.678;13.314;2023-07-30T04:14:01;11.75;;;4.45;;
68803;SDS011;55787;52.678;13.314;2023-07-30T04:16:28;10.33;;;4.43;;
68803;SDS011;55787;52.678;13.314;2023-07-30T04:18:54;10.07;;;4.35;;
68803;SDS011;55787;52.678;13.314;2023-07-30T04:21:21;10.30;;;4.43;;
68803;SDS011;55787;52.678;13.314;2023-07-30T04:23:48;11.52;;;4.47;;
68803;SDS011;55787;52.678;13.314;2023-07-30T04:26:15;11.45;;;4.82;;
68803;SDS011;55787;52.678;13.314;2023-07-30T04:28:41;12.97;;;4.53;;
68803;SDS011;55787;52.678;13.314;2023-07-30T04:31:08;10.82;;;4.32;;
68803;SDS011;55787;52.678;13.314;2023-07-30T04:33:34;11.80;;;4.63;;
68803;SDS011;55787;52.678;13.314;2023-07-30T04:36:01;9.82;;;4.53;;
68803;SDS011;55787;52.678;13.314;2023-07-30T04:38:28;10.38;;;4.45;;
68803;SDS011;55787;52.678;13.314;2023-07-30T04:40:59;10.77;;;4.50;;
68803;SDS011;55787;52.678;13.314;2023-07-30T04:43:25;10.55;;;4.40;;
68803;SDS011;55787;52.678;13.314;2023-07-30T04:45:52;10.90;;;4.60;;
68803;SDS011;55787;52.678;13.314;2023-07-30T04:48:19;10.63;;;4.25;;
68803;SDS011;55787;52.678;13.314;2023-07-30T04:50:45;11.45;;;4.55;;
68803;SDS011;55787;52.678;13.314;2023-07-30T04:53:12;10.50;;;4.57;;
68803;SDS011;55787;52.678;13.314;2023-07-30T04:55:39;10.73;;;4.75;;
68803;SDS011;55787;52.678;13.314;2023-07-30T04:58:05;12.45;;;4.80;;
68803;SDS011;55787;52.678;13.314;2023-07-30T05:00:32;9.70;;;4.25;;
68803;SDS011;55787;52.678;13.314;2023-07-30T05:02:59;12.52;;;4.80;;
68803;SDS011;55787;52.678;13.314;2023-07-30T05:05:26;11.57;;;4.63;;
68803;SDS011;55787;52.678;13.314;2023-07-30T05:07:52;10.75;;;4.63;;
68803;SDS011;55787;52.678;13.314;2023-07-30T05:10:19;11.27;;;4.30;;
68803;SDS011;55787;52.678;13.314;2023-07-30T05:12:46;11.13;;;4.70;;
68803;SDS011;55787;52.678;13.314;2023-07-30T05:15:12;11.10;;;4.68;;
68803;SDS011;55787;52.678;13.314;2023-07-30T05:17:39;11.10;;;4.73;;
68803;SDS011;55787;52.678;13.314;2023-07-30T05:20:06;8.95;;;4.10;;
68803;SDS011;55787;52.678;13.314;2023-07-30T05:22:33;8.73;;;4.00;;
68803;SDS011;55787;52.678;13.314;2023-07-30T05:25:00;8.63;;;3.70;;
68803;SDS011;55787;52.678;13.314;2023-07-30T05:27:26;8.13;;;3.60;;
68803;SDS011;55787;52.678;13.314;2023-07-30T05:29:55;8.53;;;3.37;;
68803;SDS011;55787;52.678;13.314;2023-07-30T05:32:21;9.45;;;3.67;;
68803;SDS011;55787;52.678;13.314;2023-07-30T05:34:48;8.75;;;4.05;;
68803;SDS011;55787;52.678;13.314;2023-07-30T05:37:15;9.00;;;3.38;;
68803;SDS011;55787;52.678;13.314;2023-07-30T05:39:41;7.90;;;3.30;;
68803;SDS011;55787;52.678;13.314;2023-07-30T05:42:08;7.50;;;3.00;;
68803;SDS011;55787;52.678;13.314;2023-07-30T05:44:35;7.53;;;3.22;;
68803;SDS011;55787;52.678;13.314;2023-07-30T05:47:01;7.63;;;3.17;;
68803;SDS011;55787;52.678;13.314;2023-07-30T05:49:28;7.75;;;3.30;;
68803;SDS011;55787;52.678;13.314;2023-07-30T05:51:56;8.15;;;3.10;;
68803;SDS011;55787;52.678;13.314;2023-07-30T05:54:23;7.67;;;3.17;;
68803;SDS011;55787;52.678;13.314;2023-07-30T05:56:49;8.88;;;2.92;;
68803;SDS011;55787;52.678;13.314;2023-07-30T05:59:16;7.80;;;3.45;;
68803;SDS011;55787;52.678;13.314;2023-07-30T06:01:47;7.25;;;2.90;;
68803;SDS011;55787;52.678;13.314;2023-07-30T06:04:13;7.45;;;2.80;;
68803;SDS011;55787;52.678;13.314;2023-07-30T06:06:40;8.77;;;2.70;;
68803;SDS011;55787;52.678;13.314;2023-07-30T06:09:07;6.88;;;2.47;;
68803;SDS011;55787;52.678;13.314;2023-07-30T06:11:33;7.28;;;2.33;;
68803;SDS011;55787;52.678;13.314;2023-07-30T06:14:00;6.88;;;2.30;;
68803;SDS011;55787;52.678;13.314;2023-07-30T06:16:27;6.55;;;2.10;;
68803;SDS011;55787;52.678;13.314;2023-07-30T06:18:54;7.90;;;2.20;;
68803;SDS011;55787;52.678;13.314;2023-07-30T06:21:21;6.63;;;2.28;;
68803;SDS011;55787;52.678;13.314;2023-07-30T06:23:47;6.70;;;2.33;;
68803;SDS011;55787;52.678;13.314;2023-07-30T06:26:14;7.05;;;2.40;;
68803;SDS011;55787;52.678;13.314;2023-07-30T06:28:40;6.95;;;1.95;;
68803;SDS011;55787;52.678;13.314;2023-07-30T06:31:07;7.00;;;2.27;;
68803;SDS011;55787;52.678;13.314;2023-07-30T06:33:34;8.60;;;3.17;;
68803;SDS011;55787;52.678;13.314;2023-07-30T06:36:01;8.25;;;2.78;;
68803;SDS011;55787;52.678;13.314;2023-07-30T06:38:27;7.95;;;2.40;;
68803;SDS011;55787;52.678;13.314;2023-07-30T06:40:54;7.65;;;2.55;;
68803;SDS011;55787;52.678;13.314;2023-07-30T06:43:23;6.83;;;2.17;;
68803;SDS011;55787;52.678;13.314;2023-07-30T06:45:50;6.38;;;2.22;;
68803;SDS011;55787;52.678;13.314;2023-07-30T06:48:17;7.40;;;2.33;;
68803;SDS011;55787;52.678;13.314;2023-07-30T06:50:43;6.75;;;2.55;;
68803;SDS011;55787;52.678;13.314;2023-07-30T06:53:10;6.13;;;1.90;;
68803;SDS011;55787;52.678;13.314;2023-07-30T06:55:37;6.93;;;2.10;;
68803;SDS011;55787;52.678;13.314;2023-07-30T06:58:03;6.10;;;1.95;;
68803;SDS011;55787;52.678;13.314;2023-07-30T07:00:30;6.22;;;2.08;;
68803;SDS011;55787;52.678;13.314;2023-07-30T07:02:57;5.80;;;1.70;;
68803;SDS011;55787;52.678;13.314;2023-07-30T07:05:24;6.18;;;1.80;;
68803;SDS011;55787;52.678;13.314;2023-07-30T07:07:50;7.33;;;1.90;;
68803;SDS011;55787;52.678;13.314;2023-07-30T07:10:17;6.50;;;1.88;;
68803;SDS011;55787;52.678;13.314;2023-07-30T07:12:44;6.35;;;2.10;;
68803;SDS011;55787;52.678;13.314;2023-07-30T07:15:11;7.00;;;2.40;;
68803;SDS011;55787;52.678;13.314;2023-07-30T07:17:39;6.13;;;1.95;;
68803;SDS011;55787;52.678;13.314;2023-07-30T07:20:06;6.10;;;1.83;;
68803;SDS011;55787;52.678;13.314;2023-07-30T07:22:33;7.53;;;2.10;;
68803;SDS011;55787;52.678;13.314;2023-07-30T07:25:00;7.07;;;2.33;;
68803;SDS011;55787;52.678;13.314;2023-07-30T07:27:27;7.50;;;2.17;;
68803;SDS011;55787;52.678;13.314;2023-07-30T07:29:54;6.82;;;2.88;;
68803;SDS011;55787;52.678;13.314;2023-07-30T07:32:20;7.37;;;2.40;;
68803;SDS011;55787;52.678;13.314;2023-07-30T07:34:48;7.63;;;2.78;;
68803;SDS011;55787;52.678;13.314;2023-07-30T07:37:15;8.23;;;2.58;;
68803;SDS011;55787;52.678;13.314;2023-07-30T07:39:45;7.50;;;2.40;;
68803;SDS011;55787;52.678;13.314;2023-07-30T07:42:12;7.80;;;1.92;;
68803;SDS011;55787;52.678;13.314;2023-07-30T07:44:39;6.07;;;2.07;;
68803;SDS011;55787;52.678;13.314;2023-07-30T07:47:06;6.28;;;1.77;;
68803;SDS011;55787;52.678;13.314;2023-07-30T07:49:32;5.68;;;1.92;;
68803;SDS011;55787;52.678;13.314;2023-07-30T07:51:59;6.07;;;2.10;;
68803;SDS011;55787;52.678;13.314;2023-07-30T07:54:26;5.95;;;2.22;;
68803;SDS011;55787;52.678;13.314;2023-07-30T07:56:52;6.17;;;1.70;;
68803;SDS011;55787;52.678;13.314;2023-07-30T07:59:19;5.40;;;1.80;;
68803;SDS011;55787;52.678;13.314;2023-07-30T08:01:46;6.60;;;2.20;;
68803;SDS011;55787;52.678;13.314;2023-07-30T08:04:13;5.85;;;1.77;;
68803;SDS011;55787;52.678;13.314;2023-07-30T08:06:40;5.85;;;1.90;;
68803;SDS011;55787;52.678;13.314;2023-07-30T08:09:06;6.30;;;2.07;;
68803;SDS011;55787;52.678;13.314;2023-07-30T08:11:33;5.80;;;1.70;;
68803;SDS011;55787;52.678;13.314;2023-07-30T08:14:00;5.93;;;1.92;;
68803;SDS011;55787;52.678;13.314;2023-07-30T08:16:27;7.07;;;2.08;;
68803;SDS011;55787;52.678;13.314;2023-07-30T08:18:53;6.47;;;2.50;;
68803;SDS011;55787;52.678;13.314;2023-07-30T08:21:21;6.00;;;2.00;;
68803;SDS011;55787;52.678;13.314;2023-07-30T08:23:47;6.63;;;2.50;;
68803;SDS011;55787;52.678;13.314;2023-07-30T08:26:14;5.50;;;1.67;;
68803;SDS011;55787;52.678;13.314;2023-07-30T08:28:41;6.57;;;2.25;;
68803;SDS011;55787;52.678;13.314;2023-07-30T08:31:07;5.78;;;2.17;;
68803;SDS011;55787;52.678;13.314;2023-07-30T08:33:34;7.23;;;2.17;;
68803;SDS011;55787;52.678;13.314;2023-07-30T08:36:01;6.18;;;1.80;;
68803;SDS011;55787;52.678;13.314;2023-07-30T08:38:28;5.13;;;1.40;;
68803;SDS011;55787;52.678;13.314;2023-07-30T08:40:55;6.25;;;1.70;;
68803;SDS011;55787;52.678;13.314;2023-07-30T08:43:22;5.20;;;1.55;;
68803;SDS011;55787;52.678;13.314;2023-07-30T08:45:48;5.93;;;1.77;;
68803;SDS011;55787;52.678;13.314;2023-07-30T08:48:16;5.50;;;1.60;;
68803;SDS011;55787;52.678;13.314;2023-07-30T08:50:43;6.10;;;2.30;;
68803;SDS011;55787;52.678;13.314;2023-07-30T08:53:10;5.90;;;2.03;;
68803;SDS011;55787;52.678;13.314;2023-07-30T08:55:38;6.80;;;2.15;;
68803;SDS011;55787;52.678;13.314;2023-07-30T08:58:06;5.57;;;1.60;;
68803;SDS011;55787;52.678;13.314;2023-07-30T09:00:36;5.80;;;2.05;;
68803;SDS011;55787;52.678;13.314;2023-07-30T09:03:04;6.20;;;2.45;;
68803;SDS011;55787;52.678;13.314;2023-07-30T09:05:31;5.85;;;2.15;;
68803;SDS011;55787;52.678;13.314;2023-07-30T09:07:58;6.53;;;2.10;;
68803;SDS011;55787;52.678;13.314;2023-07-30T09:10:26;6.20;;;1.90;;
68803;SDS011;55787;52.678;13.314;2023-07-30T09:12:54;6.35;;;2.05;;
68803;SDS011;55787;52.678;13.314;2023-07-30T09:15:32;6.32;;;2.50;;
68803;SDS011;55787;52.678;13.314;2023-07-30T09:18:00;5.93;;;2.20;;
68803;SDS011;55787;52.678;13.314;2023-07-30T09:20:28;6.55;;;2.30;;
68803;SDS011;55787;52.678;13.314;2023-07-30T09:23:03;6.00;;;2.40;;
68803;SDS011;55787;52.678;13.314;2023-07-30T09:25:29;5.85;;;2.00;;
68803;SDS011;55787;52.678;13.314;2023-07-30T09:27:56;6.43;;;2.38;;
68803;SDS011;55787;52.678;13.314;2023-07-30T09:30:25;6.82;;;2.20;;
68803;SDS011;55787;52.678;13.314;2023-07-30T09:32:56;6.70;;;1.88;;
68803;SDS011;55787;52.678;13.314;2023-07-30T09:35:24;5.83;;;1.93;;
68803;SDS011;55787;52.678;13.314;2023-07-30T09:37:59;5.25;;;1.77;;
68803;SDS011;55787;52.678;13.314;2023-07-30T09:40:32;6.63;;;2.13;;
68803;SDS011;55787;52.678;13.314;2023-07-30T09:43:00;5.68;;;2.10;;
68803;SDS011;55787;52.678;13.314;2023-07-30T09:45:31;5.60;;;2.30;;
68803;SDS011;55787;52.678;13.314;2023-07-30T09:48:02;5.60;;;1.90;;
68803;SDS011;55787;52.678;13.314;2023-07-30T09:50:32;5.85;;;1.60;;
68803;SDS011;55787;52.678;13.314;2023-07-30T09:53:03;6.57;;;1.60;;
68803;SDS011;55787;52.678;13.314;2023-07-30T09:55:30;6.78;;;1.48;;
68803;SDS011;55787;52.678;13.314;2023-07-30T09:57:57;6.60;;;1.70;;
68803;SDS011;55787;52.678;13.314;2023-07-30T10:00:24;5.80;;;1.40;;
68803;SDS011;55787;52.678;13.314;2023-07-30T10:02:51;5.47;;;1.30;;
68803;SDS011;55787;52.678;13.314;2023-07-30T10:05:22;5.38;;;1.60;;
68803;SDS011;55787;52.678;13.314;2023-07-30T10:07:57;6.20;;;1.40;;
68803;SDS011;55787;52.678;13.314;2023-07-30T10:10:27;6.55;;;1.20;;
68803;SDS011;55787;52.678;13.314;2023-07-30T10:12:55;5.63;;;1.10;;
68803;SDS011;55787;52.678;13.314;2023-07-30T10:15:27;5.38;;;1.60;;
68803;SDS011;55787;52.678;13.314;2023-07-30T10:17:55;5.03;;;1.33;;
68803;SDS011;55787;52.678;13.314;2023-07-30T10:20:28;6.15;;;1.77;;
68803;SDS011;55787;52.678;13.314;2023-07-30T10:22:57;5.32;;;1.17;;
68803;SDS011;55787;52.678;13.314;2023-07-30T10:25:44;6.77;;;1.63;;
68803;SDS011;55787;52.678;13.314;2023-07-30T10:30:58;7.07;;;2.10;;
68803;SDS011;55787;52.678;13.314;2023-07-30T10:36:36;6.72;;;1.85;;
68803;SDS011;55787;52.678;13.314;2023-07-30T10:39:16;6.03;;;1.90;;
68803;SDS011;55787;52.678;13.314;2023-07-30T10:41:47;6.43;;;1.92;;
68803;SDS011;55787;52.678;13.314;2023-07-30T10:44:22;7.38;;;2.33;;
68803;SDS011;55787;52.678;13.314;2023-07-30T10:47:01;5.78;;;1.70;;
68803;SDS011;55787;52.678;13.314;2023-07-30T10:49:30;6.55;;;1.70;;
68803;SDS011;55787;52.678;13.314;2023-07-30T10:52:02;6.07;;;2.10;;
68803;SDS011;55787;52.678;13.314;2023-07-30T10:54:33;5.63;;;2.03;;
68803;SDS011;55787;52.678;13.314;2023-07-30T10:57:00;6.57;;;2.65;;
68803;SDS011;55787;52.678;13.314;2023-07-30T10:59:35;7.00;;;2.17;;
68803;SDS011;55787;52.678;13.314;2023-07-30T11:02:03;6.10;;;2.08;;
68803;SDS011;55787;52.678;13.314;2023-07-30T11:04:33;5.43;;;2.07;;
68803;SDS011;55787;52.678;13.314;2023-07-30T11:07:01;5.72;;;2.08;;
68803;SDS011;55787;52.678;13.314;2023-07-30T11:09:29;6.22;;;2.22;;
68803;SDS011;55787;52.678;13.314;2023-07-30T11:11:56;6.50;;;2.10;;
68803;SDS011;55787;52.678;13.314;2023-07-30T11:14:23;6.40;;;2.10;;
68803;SDS011;55787;52.678;13.314;2023-07-30T11:16:54;6.93;;;2.40;;
68803;SDS011;55787;52.678;13.314;2023-07-30T11:19:25;5.47;;;1.80;;
68803;SDS011;55787;52.678;13.314;2023-07-30T11:21:53;6.45;;;2.13;;
68803;SDS011;55787;52.678;13.314;2023-07-30T11:24:21;5.95;;;2.22;;
68803;SDS011;55787;52.678;13.314;2023-07-30T11:26:57;5.75;;;1.60;;
68803;SDS011;55787;52.678;13.314;2023-07-30T11:29:25;5.73;;;1.97;;
68803;SDS011;55787;52.678;13.314;2023-07-30T11:31:55;6.03;;;2.05;;
68803;SDS011;55787;52.678;13.314;2023-07-30T11:34:24;6.55;;;2.00;;
68803;SDS011;55787;52.678;13.314;2023-07-30T11:36:52;5.88;;;2.03;;
68803;SDS011;55787;52.678;13.314;2023-07-30T11:39:20;6.30;;;2.20;;
68803;SDS011;55787;52.678;13.314;2023-07-30T11:41:49;6.53;;;2.20;;
68803;SDS011;55787;52.678;13.314;2023-07-30T11:44:32;5.50;;;2.03;;
68803;SDS011;55787;52.678;13.314;2023-07-30T11:47:01;5.95;;;1.90;;
68803;SDS011;55787;52.678;13.314;2023-07-30T11:49:30;5.50;;;1.70;;
68803;SDS011;55787;52.678;13.314;2023-07-30T11:52:09;6.07;;;1.80;;
68803;SDS011;55787;52.678;13.314;2023-07-30T11:54:37;6.60;;;1.70;;
68803;SDS011;55787;52.678;13.314;2023-07-30T11:57:04;5.95;;;1.95;;
68803;SDS011;55787;52.678;13.314;2023-07-30T11:59:31;6.07;;;1.70;;
68803;SDS011;55787;52.678;13.314;2023-07-30T12:01:58;6.05;;;1.70;;
68803;SDS011;55787;52.678;13.314;2023-07-30T12:04:25;6.45;;;1.95;;
68803;SDS011;55787;52.678;13.314;2023-07-30T12:06:57;5.97;;;1.37;;
68803;SDS011;55787;52.678;13.314;2023-07-30T12:09:24;4.97;;;1.40;;
68803;SDS011;55787;52.678;13.314;2023-07-30T12:11:54;5.65;;;1.88;;
68803;SDS011;55787;52.678;13.314;2023-07-30T12:14:24;6.25;;;1.55;;
68803;SDS011;55787;52.678;13.314;2023-07-30T12:16:57;5.72;;;1.38;;
68803;SDS011;55787;52.678;13.314;2023-07-30T12:19:24;6.20;;;1.60;;
68803;SDS011;55787;52.678;13.314;2023-07-30T12:21:50;5.57;;;1.40;;
68803;SDS011;55787;52.678;13.314;2023-07-30T12:24:17;6.30;;;1.85;;
68803;SDS011;55787;52.678;13.314;2023-07-30T12:26:44;5.80;;;1.52;;
68803;SDS011;55787;52.678;13.314;2023-07-30T12:29:11;5.97;;;1.40;;
68803;SDS011;55787;52.678;13.314;2023-07-30T12:31:38;6.37;;;1.40;;
68803;SDS011;55787;52.678;13.314;2023-07-30T12:34:05;5.70;;;1.60;;
68803;SDS011;55787;52.678;13.314;2023-07-30T12:36:32;6.65;;;1.90;;
68803;SDS011;55787;52.678;13.314;2023-07-30T12:38:59;5.82;;;1.77;;
68803;SDS011;55787;52.678;13.314;2023-07-30T12:41:25;6.68;;;1.55;;
68803;SDS011;55787;52.678;13.314;2023-07-30T12:43:53;5.83;;;1.80;;
68803;SDS011;55787;52.678;13.314;2023-07-30T12:46:20;7.25;;;2.00;;
68803;SDS011;55787;52.678;13.314;2023-07-30T12:48:47;5.93;;;1.88;;
68803;SDS011;55787;52.678;13.314;2023-07-30T12:51:14;6.47;;;1.73;;
68803;SDS011;55787;52.678;13.314;2023-07-30T12:53:41;5.93;;;1.80;;
68803;SDS011;55787;52.678;13.314;2023-07-30T12:56:07;5.57;;;1.60;;
68803;SDS011;55787;52.678;13.314;2023-07-30T12:58:34;6.30;;;1.73;;
68803;SDS011;55787;52.678;13.314;2023-07-30T13:01:02;6.90;;;1.73;;
68803;SDS011;55787;52.678;13.314;2023-07-30T13:03:31;7.00;;;1.75;;
68803;SDS011;55787;52.678;13.314;2023-07-30T13:05:58;6.80;;;2.00;;
68803;SDS011;55787;52.678;13.314;2023-07-30T13:08:25;6.90;;;1.47;;
68803;SDS011;55787;52.678;13.314;2023-07-30T13:10:52;5.53;;;1.58;;
68803;SDS011;55787;52.678;13.314;2023-07-30T13:13:18;6.10;;;1.70;;
68803;SDS011;55787;52.678;13.314;2023-07-30T13:15:45;7.15;;;1.60;;
68803;SDS011;55787;52.678;13.314;2023-07-30T13:18:12;6.45;;;1.50;;
68803;SDS011;55787;52.678;13.314;2023-07-30T13:20:38;5.83;;;1.67;;
68803;SDS011;55787;52.678;13.314;2023-07-30T13:23:05;6.15;;;1.50;;
68803;SDS011;55787;52.678;13.314;2023-07-30T13:25:32;7.28;;;1.63;;
68803;SDS011;55787;52.678;13.314;2023-07-30T13:27:58;5.90;;;1.70;;
68803;SDS011;55787;52.678;13.314;2023-07-30T13:30:25;5.70;;;1.60;;
68803;SDS011;55787;52.678;13.314;2023-07-30T13:32:52;6.10;;;1.63;;
68803;SDS011;55787;52.678;13.314;2023-07-30T13:35:19;5.32;;;1.50;;
68803;SDS011;55787;52.678;13.314;2023-07-30T13:37:45;7.45;;;1.73;;
68803;SDS011;55787;52.678;13.314;2023-07-30T13:40:12;6.28;;;1.70;;
68803;SDS011;55787;52.678;13.314;2023-07-30T13:42:39;7.05;;;1.60;;
68803;SDS011;55787;52.678;13.314;2023-07-30T13:45:06;5.97;;;1.60;;
68803;SDS011;55787;52.678;13.314;2023-07-30T13:47:33;5.57;;;1.60;;
68803;SDS011;55787;52.678;13.314;2023-07-30T13:49:59;6.43;;;1.52;;
68803;SDS011;55787;52.678;13.314;2023-07-30T13:52:26;5.93;;;1.20;;
68803;SDS011;55787;52.678;13.314;2023-07-30T13:54:53;6.00;;;1.35;;
68803;SDS011;55787;52.678;13.314;2023-07-30T13:57:23;6.10;;;1.30;;
68803;SDS011;55787;52.678;13.314;2023-07-30T13:59:51;7.18;;;1.58;;
68803;SDS011;55787;52.678;13.314;2023-07-30T14:02:18;5.68;;;1.05;;
68803;SDS011;55787;52.678;13.314;2023-07-30T14:04:45;4.90;;;1.00;;
68803;SDS011;55787;52.678;13.314;2023-07-30T14:07:12;5.32;;;1.10;;
68803;SDS011;55787;52.678;13.314;2023-07-30T14:09:39;6.17;;;0.97;;
68803;SDS011;55787;52.678;13.314;2023-07-30T14:12:06;5.50;;;1.00;;
68803;SDS011;55787;52.678;13.314;2023-07-30T14:14:33;6.10;;;1.30;;
68803;SDS011;55787;52.678;13.314;2023-07-30T14:17:00;5.07;;;0.98;;
68803;SDS011;55787;52.678;13.314;2023-07-30T14:19:33;6.70;;;1.08;;
68803;SDS011;55787;52.678;13.314;2023-07-30T14:22:00;5.53;;;0.90;;
68803;SDS011;55787;52.678;13.314;2023-07-30T14:24:27;5.43;;;0.88;;
68803;SDS011;55787;52.678;13.314;2023-07-30T14:26:54;5.53;;;1.00;;
68803;SDS011;55787;52.678;13.314;2023-07-30T14:29:21;5.13;;;0.90;;
68803;SDS011;55787;52.678;13.314;2023-07-30T14:31:48;5.63;;;0.80;;
68803;SDS011;55787;52.678;13.314;2023-07-30T14:34:15;3.33;;;0.60;;
68803;SDS011;55787;52.678;13.314;2023-07-30T14:36:41;6.97;;;0.90;;
68803;SDS011;55787;52.678;13.314;2023-07-30T14:39:08;5.90;;;0.80;;
68803;SDS011;55787;52.678;13.314;2023-07-30T14:41:35;7.65;;;1.50;;